sensor_id;sensor_type;location;lat;lon;timestamp;P1;durP1;ratioP1;P2;durP2;ratioP2
1106;SDS011;540;49.448;8.612;2023-04-16T00:00:43;8.57;;;5.47;;
1106;SDS011;540;49.448;8.612;2023-04-16T00:03:13;9.63;;;5.63;;
1106;SDS011;540;49.448;8.612;2023-04-16T00:05:41;9.75;;;6.30;;
1106;SDS011;540;49.448;8.612;2023-04-16T00:08:10;10.60;;;4.97;;
1106;SDS011;540;49.448;8.612;2023-04-16T00:10:38;8.93;;;6.03;;
1106;SDS011;540;49.448;8.612;2023-04-16T00:13:06;9.35;;;6.05;;
1106;SDS011;540;49.448;8.612;2023-04-16T00:15:34;10.57;;;6.05;;
1106;SDS011;540;49.448;8.612;2023-04-16T00:18:02;10.55;;;5.25;;
1106;SDS011;540;49.448;8.612;2023-04-16T00:20:29;10.65;;;6.25;;
1106;SDS011;540;49.448;8.612;2023-04-16T00:22:57;9.98;;;5.60;;
1106;SDS011;540;49.448;8.612;2023-04-16T00:25:26;11.55;;;6.55;;
1106;SDS011;540;49.448;8.612;2023-04-16T00:27:54;11.93;;;5.85;;
1106;SDS011;540;49.448;8.612;2023-04-16T00:30:22;11.15;;;6.22;;
1106;SDS011;540;49.448;8.612;2023-04-16T00:32:49;8.07;;;5.50;;
1106;SDS011;540;49.448;8.612;2023-04-16T00:35:17;10.60;;;6.47;;
1106;SDS011;540;49.448;8.612;2023-04-16T00:37:45;13.30;;;6.53;;
1106;SDS011;540;49.448;8.612;2023-04-16T00:40:13;11.15;;;7.10;;
1106;SDS011;540;49.448;8.612;2023-04-16T00:42:44;10.10;;;6.30;;
1106;SDS011;540;49.448;8.612;2023-04-16T00:45:12;11.38;;;6.97;;
1106;SDS011;540;49.448;8.612;2023-04-16T00:47:40;10.63;;;6.60;;
1106;SDS011;540;49.448;8.612;2023-04-16T00:50:08;9.88;;;6.55;;
1106;SDS011;540;49.448;8.612;2023-04-16T00:52:37;11.40;;;6.15;;
1106;SDS011;540;49.448;8.612;2023-04-16T00:55:06;13.88;;;7.82;;
1106;SDS011;540;49.448;8.612;2023-04-16T00:57:38;12.40;;;6.32;;
1106;SDS011;540;49.448;8.612;2023-04-16T01:00:08;11.70;;;6.60;;
1106;SDS011;540;49.448;8.612;2023-04-16T01:02:36;11.15;;;7.03;;
1106;SDS011;540;49.448;8.612;2023-04-16T01:05:05;12.57;;;6.82;;
1106;SDS011;540;49.448;8.612;2023-04-16T01:07:33;15.30;;;7.47;;
1106;SDS011;540;49.448;8.612;2023-04-16T01:10:01;11.82;;;7.53;;
1106;SDS011;540;49.448;8.612;2023-04-16T01:12:29;12.73;;;7.43;;
1106;SDS011;540;49.448;8.612;2023-04-16T01:14:57;12.38;;;8.02;;
1106;SDS011;540;49.448;8.612;2023-04-16T01:17:27;12.60;;;7.85;;
1106;SDS011;540;49.448;8.612;2023-04-16T01:19:56;13.32;;;7.97;;
1106;SDS011;540;49.448;8.612;2023-04-16T01:22:26;13.82;;;8.30;;
1106;SDS011;540;49.448;8.612;2023-04-16T01:24:54;13.20;;;7.35;;
1106;SDS011;540;49.448;8.612;2023-04-16T01:27:22;14.55;;;7.47;;
1106;SDS011;540;49.448;8.612;2023-04-16T01:29:50;14.93;;;8.60;;
1106;SDS011;540;49.448;8.612;2023-04-16T01:32:18;13.35;;;7.85;;
1106;SDS011;540;49.448;8.612;2023-04-16T01:34:46;15.43;;;8.25;;
1106;SDS011;540;49.448;8.612;2023-04-16T01:37:14;14.15;;;8.45;;
1106;SDS011;540;49.448;8.612;2023-04-16T01:39:43;17.10;;;9.55;;
1106;SDS011;540;49.448;8.612;2023-04-16T01:42:10;16.92;;;9.05;;
1106;SDS011;540;49.448;8.612;2023-04-16T01:44:38;14.02;;;8.40;;
1106;SDS011;540;49.448;8.612;2023-04-16T01:47:06;15.75;;;8.40;;
1106;SDS011;540;49.448;8.612;2023-04-16T01:49:34;15.93;;;8.88;;
1106;SDS011;540;49.448;8.612;2023-04-16T01:52:02;18.77;;;8.90;;
1106;SDS011;540;49.448;8.612;2023-04-16T01:54:31;17.08;;;9.27;;
1106;SDS011;540;49.448;8.612;2023-04-16T01:57:00;18.60;;;9.15;;
1106;SDS011;540;49.448;8.612;2023-04-16T01:59:28;17.25;;;9.52;;
1106;SDS011;540;49.448;8.612;2023-04-16T02:01:56;19.20;;;9.07;;
1106;SDS011;540;49.448;8.612;2023-04-16T02:04:26;19.58;;;9.52;;
1106;SDS011;540;49.448;8.612;2023-04-16T02:06:54;18.50;;;10.70;;
1106;SDS011;540;49.448;8.612;2023-04-16T02:09:22;18.98;;;9.95;;
1106;SDS011;540;49.448;8.612;2023-04-16T02:11:50;22.77;;;10.65;;
1106;SDS011;540;49.448;8.612;2023-04-16T02:14:19;22.52;;;10.80;;
1106;SDS011;540;49.448;8.612;2023-04-16T02:16:47;19.92;;;11.07;;
1106;SDS011;540;49.448;8.612;2023-04-16T02:19:16;20.25;;;10.30;;
1106;SDS011;540;49.448;8.612;2023-04-16T02:21:43;19.88;;;10.80;;
1106;SDS011;540;49.448;8.612;2023-04-16T02:24:11;19.52;;;11.40;;
1106;SDS011;540;49.448;8.612;2023-04-16T02:26:39;22.80;;;12.05;;
1106;SDS011;540;49.448;8.612;2023-04-16T02:29:07;20.77;;;11.98;;
1106;SDS011;540;49.448;8.612;2023-04-16T02:31:36;20.33;;;12.55;;
1106;SDS011;540;49.448;8.612;2023-04-16T02:34:04;19.42;;;11.57;;
1106;SDS011;540;49.448;8.612;2023-04-16T02:36:32;23.30;;;12.65;;
1106;SDS011;540;49.448;8.612;2023-04-16T02:39:00;21.10;;;12.27;;
1106;SDS011;540;49.448;8.612;2023-04-16T02:41:27;24.77;;;13.88;;
1106;SDS011;540;49.448;8.612;2023-04-16T02:43:55;22.63;;;11.90;;
1106;SDS011;540;49.448;8.612;2023-04-16T02:46:23;18.88;;;11.07;;
1106;SDS011;540;49.448;8.612;2023-04-16T02:48:52;22.13;;;11.52;;
1106;SDS011;540;49.448;8.612;2023-04-16T02:51:20;25.25;;;13.23;;
1106;SDS011;540;49.448;8.612;2023-04-16T02:53:48;20.15;;;12.23;;
1106;SDS011;540;49.448;8.612;2023-04-16T02:56:15;21.40;;;11.93;;
1106;SDS011;540;49.448;8.612;2023-04-16T02:58:43;22.08;;;11.07;;
1106;SDS011;540;49.448;8.612;2023-04-16T03:01:11;23.67;;;12.07;;
1106;SDS011;540;49.448;8.612;2023-04-16T03:03:39;20.02;;;11.48;;
1106;SDS011;540;49.448;8.612;2023-04-16T03:06:08;21.10;;;11.95;;
1106;SDS011;540;49.448;8.612;2023-04-16T03:08:36;18.10;;;10.20;;
1106;SDS011;540;49.448;8.612;2023-04-16T03:11:04;20.48;;;11.27;;
1106;SDS011;540;49.448;8.612;2023-04-16T03:13:32;19.23;;;10.32;;
1106;SDS011;540;49.448;8.612;2023-04-16T03:16:00;20.77;;;11.15;;
1106;SDS011;540;49.448;8.612;2023-04-16T03:18:28;19.80;;;11.70;;
1106;SDS011;540;49.448;8.612;2023-04-16T03:20:56;19.95;;;11.05;;
1106;SDS011;540;49.448;8.612;2023-04-16T03:23:25;19.02;;;11.32;;
1106;SDS011;540;49.448;8.612;2023-04-16T03:25:53;21.63;;;10.73;;
1106;SDS011;540;49.448;8.612;2023-04-16T03:28:21;20.98;;;11.05;;
1106;SDS011;540;49.448;8.612;2023-04-16T03:30:49;20.67;;;11.95;;
1106;SDS011;540;49.448;8.612;2023-04-16T03:33:18;20.92;;;11.98;;
1106;SDS011;540;49.448;8.612;2023-04-16T03:35:53;23.10;;;11.95;;
1106;SDS011;540;49.448;8.612;2023-04-16T03:38:22;23.67;;;11.55;;
1106;SDS011;540;49.448;8.612;2023-04-16T03:40:51;19.70;;;11.57;;
1106;SDS011;540;49.448;8.612;2023-04-16T03:43:19;22.98;;;12.55;;
1106;SDS011;540;49.448;8.612;2023-04-16T03:45:47;20.20;;;11.80;;
1106;SDS011;540;49.448;8.612;2023-04-16T03:48:14;22.42;;;11.38;;
1106;SDS011;540;49.448;8.612;2023-04-16T03:50:43;24.33;;;12.05;;
1106;SDS011;540;49.448;8.612;2023-04-16T03:53:12;24.17;;;11.73;;
1106;SDS011;540;49.448;8.612;2023-04-16T03:55:40;19.98;;;11.20;;
1106;SDS011;540;49.448;8.612;2023-04-16T03:58:10;20.27;;;11.38;;
1106;SDS011;540;49.448;8.612;2023-04-16T04:00:40;23.77;;;12.50;;
1106;SDS011;540;49.448;8.612;2023-04-16T04:03:08;20.17;;;10.90;;
1106;SDS011;540;49.448;8.612;2023-04-16T04:05:37;23.88;;;12.32;;
1106;SDS011;540;49.448;8.612;2023-04-16T04:08:06;22.88;;;11.38;;
1106;SDS011;540;49.448;8.612;2023-04-16T04:10:34;22.05;;;11.73;;
1106;SDS011;540;49.448;8.612;2023-04-16T04:13:03;22.50;;;11.82;;
1106;SDS011;540;49.448;8.612;2023-04-16T04:15:33;20.58;;;11.35;;
1106;SDS011;540;49.448;8.612;2023-04-16T04:18:01;18.00;;;10.20;;
1106;SDS011;540;49.448;8.612;2023-04-16T04:20:29;24.65;;;12.65;;
1106;SDS011;540;49.448;8.612;2023-04-16T04:22:57;26.23;;;12.18;;
1106;SDS011;540;49.448;8.612;2023-04-16T04:25:25;19.15;;;10.90;;
1106;SDS011;540;49.448;8.612;2023-04-16T04:27:53;21.63;;;11.88;;
1106;SDS011;540;49.448;8.612;2023-04-16T04:30:21;20.85;;;12.02;;
1106;SDS011;540;49.448;8.612;2023-04-16T04:32:50;21.33;;;10.77;;
1106;SDS011;540;49.448;8.612;2023-04-16T04:35:17;22.45;;;11.80;;
1106;SDS011;540;49.448;8.612;2023-04-16T04:37:45;23.50;;;12.43;;
1106;SDS011;540;49.448;8.612;2023-04-16T04:40:14;23.30;;;12.18;;
1106;SDS011;540;49.448;8.612;2023-04-16T04:42:41;23.30;;;12.40;;
1106;SDS011;540;49.448;8.612;2023-04-16T04:45:09;20.27;;;10.90;;
1106;SDS011;540;49.448;8.612;2023-04-16T04:47:37;21.67;;;11.55;;
1106;SDS011;540;49.448;8.612;2023-04-16T04:50:07;24.58;;;12.02;;
1106;SDS011;540;49.448;8.612;2023-04-16T04:52:35;23.92;;;12.27;;
1106;SDS011;540;49.448;8.612;2023-04-16T04:55:03;21.70;;;11.27;;
1106;SDS011;540;49.448;8.612;2023-04-16T04:57:32;22.83;;;12.25;;
1106;SDS011;540;49.448;8.612;2023-04-16T04:59:59;23.17;;;11.30;;
1106;SDS011;540;49.448;8.612;2023-04-16T05:02:29;21.23;;;11.52;;
1106;SDS011;540;49.448;8.612;2023-04-16T05:04:57;20.80;;;12.00;;
1106;SDS011;540;49.448;8.612;2023-04-16T05:07:26;21.42;;;10.98;;
1106;SDS011;540;49.448;8.612;2023-04-16T05:09:54;24.02;;;11.85;;
1106;SDS011;540;49.448;8.612;2023-04-16T05:12:21;20.77;;;10.88;;
1106;SDS011;540;49.448;8.612;2023-04-16T05:14:49;23.38;;;12.35;;
1106;SDS011;540;49.448;8.612;2023-04-16T05:17:17;26.98;;;13.13;;
1106;SDS011;540;49.448;8.612;2023-04-16T05:19:44;24.58;;;12.30;;
1106;SDS011;540;49.448;8.612;2023-04-16T05:22:12;22.00;;;11.30;;
1106;SDS011;540;49.448;8.612;2023-04-16T05:24:45;25.73;;;12.82;;
1106;SDS011;540;49.448;8.612;2023-04-16T05:27:12;23.92;;;11.75;;
1106;SDS011;540;49.448;8.612;2023-04-16T05:29:40;22.25;;;11.23;;
1106;SDS011;540;49.448;8.612;2023-04-16T05:32:08;24.20;;;11.95;;
1106;SDS011;540;49.448;8.612;2023-04-16T05:34:36;20.42;;;10.52;;
1106;SDS011;540;49.448;8.612;2023-04-16T05:37:03;22.65;;;11.48;;
1106;SDS011;540;49.448;8.612;2023-04-16T05:39:31;20.30;;;11.60;;
1106;SDS011;540;49.448;8.612;2023-04-16T05:42:00;18.35;;;9.50;;
1106;SDS011;540;49.448;8.612;2023-04-16T05:44:28;19.30;;;10.68;;
1106;SDS011;540;49.448;8.612;2023-04-16T05:46:56;18.35;;;9.48;;
1106;SDS011;540;49.448;8.612;2023-04-16T05:49:24;16.15;;;8.68;;
1106;SDS011;540;49.448;8.612;2023-04-16T05:51:51;17.45;;;9.73;;
1106;SDS011;540;49.448;8.612;2023-04-16T05:54:19;15.27;;;8.73;;
1106;SDS011;540;49.448;8.612;2023-04-16T05:56:47;17.13;;;8.85;;
1106;SDS011;540;49.448;8.612;2023-04-16T05:59:16;16.00;;;8.68;;
1106;SDS011;540;49.448;8.612;2023-04-16T06:01:44;15.60;;;7.72;;
1106;SDS011;540;49.448;8.612;2023-04-16T06:04:11;12.40;;;7.15;;
1106;SDS011;540;49.448;8.612;2023-04-16T06:06:40;13.18;;;7.65;;
1106;SDS011;540;49.448;8.612;2023-04-16T06:09:07;13.38;;;6.53;;
1106;SDS011;540;49.448;8.612;2023-04-16T06:11:37;13.68;;;6.68;;
1106;SDS011;540;49.448;8.612;2023-04-16T06:14:04;13.55;;;7.75;;
1106;SDS011;540;49.448;8.612;2023-04-16T06:16:34;12.63;;;7.57;;
1106;SDS011;540;49.448;8.612;2023-04-16T06:19:01;12.85;;;7.65;;
1106;SDS011;540;49.448;8.612;2023-04-16T06:21:29;11.63;;;6.57;;
1106;SDS011;540;49.448;8.612;2023-04-16T06:23:58;10.98;;;6.72;;
1106;SDS011;540;49.448;8.612;2023-04-16T06:26:26;12.27;;;6.90;;
1106;SDS011;540;49.448;8.612;2023-04-16T06:28:54;14.40;;;7.60;;
1106;SDS011;540;49.448;8.612;2023-04-16T06:31:22;15.27;;;7.35;;
1106;SDS011;540;49.448;8.612;2023-04-16T06:33:51;12.00;;;6.57;;
1106;SDS011;540;49.448;8.612;2023-04-16T06:36:19;14.45;;;7.88;;
1106;SDS011;540;49.448;8.612;2023-04-16T06:38:47;14.30;;;8.00;;
1106;SDS011;540;49.448;8.612;2023-04-16T06:41:15;16.98;;;8.02;;
1106;SDS011;540;49.448;8.612;2023-04-16T06:43:42;14.15;;;7.65;;
1106;SDS011;540;49.448;8.612;2023-04-16T06:46:10;14.52;;;7.70;;
1106;SDS011;540;49.448;8.612;2023-04-16T06:48:38;15.38;;;8.60;;
1106;SDS011;540;49.448;8.612;2023-04-16T06:51:07;14.30;;;7.70;;
1106;SDS011;540;49.448;8.612;2023-04-16T06:53:35;17.38;;;9.02;;
1106;SDS011;540;49.448;8.612;2023-04-16T06:56:04;17.98;;;8.77;;
1106;SDS011;540;49.448;8.612;2023-04-16T06:58:32;16.05;;;8.30;;
1106;SDS011;540;49.448;8.612;2023-04-16T07:01:00;18.08;;;9.18;;
1106;SDS011;540;49.448;8.612;2023-04-16T07:03:28;14.88;;;8.30;;
1106;SDS011;540;49.448;8.612;2023-04-16T07:05:57;18.27;;;9.15;;
1106;SDS011;540;49.448;8.612;2023-04-16T07:08:26;16.90;;;9.02;;
1106;SDS011;540;49.448;8.612;2023-04-16T07:10:54;19.15;;;9.65;;
1106;SDS011;540;49.448;8.612;2023-04-16T07:13:22;16.20;;;8.13;;
1106;SDS011;540;49.448;8.612;2023-04-16T07:15:53;17.58;;;9.35;;
1106;SDS011;540;49.448;8.612;2023-04-16T07:18:21;21.20;;;9.93;;
1106;SDS011;540;49.448;8.612;2023-04-16T07:20:49;18.73;;;9.68;;
1106;SDS011;540;49.448;8.612;2023-04-16T07:23:17;22.08;;;10.50;;
1106;SDS011;540;49.448;8.612;2023-04-16T07:25:46;25.23;;;10.25;;
1106;SDS011;540;49.448;8.612;2023-04-16T07:28:14;20.88;;;10.32;;
1106;SDS011;540;49.448;8.612;2023-04-16T07:30:42;24.25;;;11.50;;
1106;SDS011;540;49.448;8.612;2023-04-16T07:33:10;30.65;;;12.70;;
1106;SDS011;540;49.448;8.612;2023-04-16T07:35:38;22.98;;;10.50;;
1106;SDS011;540;49.448;8.612;2023-04-16T07:38:06;23.50;;;11.15;;
1106;SDS011;540;49.448;8.612;2023-04-16T07:40:35;24.42;;;10.70;;
1106;SDS011;540;49.448;8.612;2023-04-16T07:43:04;21.05;;;10.43;;
1106;SDS011;540;49.448;8.612;2023-04-16T07:45:32;21.42;;;10.25;;
1106;SDS011;540;49.448;8.612;2023-04-16T07:48:00;19.17;;;9.68;;
1106;SDS011;540;49.448;8.612;2023-04-16T07:50:28;26.67;;;11.25;;
1106;SDS011;540;49.448;8.612;2023-04-16T07:52:55;19.65;;;10.40;;
1106;SDS011;540;49.448;8.612;2023-04-16T07:55:23;22.30;;;10.32;;
1106;SDS011;540;49.448;8.612;2023-04-16T07:57:51;22.30;;;10.95;;
1106;SDS011;540;49.448;8.612;2023-04-16T08:00:20;21.23;;;11.25;;
1106;SDS011;540;49.448;8.612;2023-04-16T08:02:50;22.67;;;11.00;;
1106;SDS011;540;49.448;8.612;2023-04-16T08:05:20;20.80;;;9.88;;
1106;SDS011;540;49.448;8.612;2023-04-16T08:07:50;23.30;;;10.40;;
1106;SDS011;540;49.448;8.612;2023-04-16T08:10:19;18.73;;;9.95;;
1106;SDS011;540;49.448;8.612;2023-04-16T08:12:49;21.77;;;10.90;;
1106;SDS011;540;49.448;8.612;2023-04-16T08:15:20;22.52;;;9.98;;
1106;SDS011;540;49.448;8.612;2023-04-16T08:17:50;20.95;;;10.88;;
1106;SDS011;540;49.448;8.612;2023-04-16T08:20:20;21.15;;;11.18;;
1106;SDS011;540;49.448;8.612;2023-04-16T08:22:49;18.73;;;9.40;;
1106;SDS011;540;49.448;8.612;2023-04-16T08:25:21;18.25;;;9.00;;
1106;SDS011;540;49.448;8.612;2023-04-16T08:27:51;18.17;;;9.88;;
1106;SDS011;540;49.448;8.612;2023-04-16T08:30:22;18.67;;;9.38;;
1106;SDS011;540;49.448;8.612;2023-04-16T08:32:52;19.58;;;9.52;;
1106;SDS011;540;49.448;8.612;2023-04-16T08:35:22;18.60;;;9.48;;
1106;SDS011;540;49.448;8.612;2023-04-16T08:37:52;16.33;;;8.50;;
1106;SDS011;540;49.448;8.612;2023-04-16T08:40:26;18.52;;;9.43;;
1106;SDS011;540;49.448;8.612;2023-04-16T08:42:57;17.88;;;8.65;;
1106;SDS011;540;49.448;8.612;2023-04-16T08:45:31;17.27;;;9.38;;
1106;SDS011;540;49.448;8.612;2023-04-16T08:48:04;19.10;;;9.25;;
1106;SDS011;540;49.448;8.612;2023-04-16T08:50:35;19.63;;;8.65;;
1106;SDS011;540;49.448;8.612;2023-04-16T08:53:05;16.58;;;8.48;;
1106;SDS011;540;49.448;8.612;2023-04-16T08:55:38;16.33;;;8.98;;
1106;SDS011;540;49.448;8.612;2023-04-16T08:58:12;14.77;;;7.95;;
1106;SDS011;540;49.448;8.612;2023-04-16T09:00:42;17.40;;;9.20;;
1106;SDS011;540;49.448;8.612;2023-04-16T09:03:11;16.95;;;7.97;;
1106;SDS011;540;49.448;8.612;2023-04-16T09:05:39;18.23;;;8.23;;
1106;SDS011;540;49.448;8.612;2023-04-16T09:08:08;18.13;;;8.98;;
1106;SDS011;540;49.448;8.612;2023-04-16T09:10:36;17.13;;;8.50;;
1106;SDS011;540;49.448;8.612;2023-04-16T09:13:04;18.83;;;8.77;;
1106;SDS011;540;49.448;8.612;2023-04-16T09:15:34;20.10;;;9.13;;
1106;SDS011;540;49.448;8.612;2023-04-16T09:18:04;17.25;;;8.45;;
1106;SDS011;540;49.448;8.612;2023-04-16T09:20:32;17.02;;;8.23;;
1106;SDS011;540;49.448;8.612;2023-04-16T09:22:59;15.88;;;9.40;;
1106;SDS011;540;49.448;8.612;2023-04-16T09:25:27;16.17;;;9.00;;
1106;SDS011;540;49.448;8.612;2023-04-16T09:28:00;17.13;;;9.13;;
1106;SDS011;540;49.448;8.612;2023-04-16T09:30:27;15.57;;;8.27;;
1106;SDS011;540;49.448;8.612;2023-04-16T09:35:51;19.13;;;8.90;;
1106;SDS011;540;49.448;8.612;2023-04-16T09:38:19;13.52;;;7.55;;
1106;SDS011;540;49.448;8.612;2023-04-16T09:40:47;16.55;;;8.77;;
1106;SDS011;540;49.448;8.612;2023-04-16T09:43:31;17.60;;;9.45;;
1106;SDS011;540;49.448;8.612;2023-04-16T09:46:00;15.18;;;8.43;;
1106;SDS011;540;49.448;8.612;2023-04-16T09:48:33;15.75;;;8.18;;
1106;SDS011;540;49.448;8.612;2023-04-16T09:51:04;12.63;;;7.78;;
1106;SDS011;540;49.448;8.612;2023-04-16T09:53:34;13.73;;;7.43;;
1106;SDS011;540;49.448;8.612;2023-04-16T09:56:03;17.95;;;8.13;;
1106;SDS011;540;49.448;8.612;2023-04-16T09:58:34;16.88;;;7.72;;
1106;SDS011;540;49.448;8.612;2023-04-16T10:01:04;15.73;;;7.50;;
1106;SDS011;540;49.448;8.612;2023-04-16T10:03:35;16.60;;;8.63;;
1106;SDS011;540;49.448;8.612;2023-04-16T10:06:13;14.45;;;7.78;;
1106;SDS011;540;49.448;8.612;2023-04-16T10:08:45;17.98;;;8.20;;
1106;SDS011;540;49.448;8.612;2023-04-16T10:11:17;19.55;;;8.82;;
1106;SDS011;540;49.448;8.612;2023-04-16T10:13:46;21.38;;;9.32;;
1106;SDS011;540;49.448;8.612;2023-04-16T10:16:14;16.80;;;8.60;;
1106;SDS011;540;49.448;8.612;2023-04-16T10:18:43;18.67;;;9.27;;
1106;SDS011;540;49.448;8.612;2023-04-16T10:21:14;18.58;;;8.98;;
1106;SDS011;540;49.448;8.612;2023-04-16T10:23:42;14.93;;;8.55;;
1106;SDS011;540;49.448;8.612;2023-04-16T10:26:10;17.00;;;8.77;;
1106;SDS011;540;49.448;8.612;2023-04-16T10:28:39;15.88;;;8.90;;
1106;SDS011;540;49.448;8.612;2023-04-16T10:31:08;19.10;;;8.50;;
1106;SDS011;540;49.448;8.612;2023-04-16T10:33:38;23.25;;;10.50;;
1106;SDS011;540;49.448;8.612;2023-04-16T10:36:07;19.48;;;10.00;;
1106;SDS011;540;49.448;8.612;2023-04-16T10:38:38;17.52;;;9.68;;
1106;SDS011;540;49.448;8.612;2023-04-16T10:41:07;19.67;;;10.68;;
1106;SDS011;540;49.448;8.612;2023-04-16T10:43:38;16.55;;;9.00;;
1106;SDS011;540;49.448;8.612;2023-04-16T10:46:17;19.63;;;9.93;;
1106;SDS011;540;49.448;8.612;2023-04-16T10:48:46;18.75;;;9.88;;
1106;SDS011;540;49.448;8.612;2023-04-16T10:51:22;20.25;;;10.10;;
1106;SDS011;540;49.448;8.612;2023-04-16T10:53:54;20.25;;;10.73;;
1106;SDS011;540;49.448;8.612;2023-04-16T10:56:23;21.63;;;10.30;;
1106;SDS011;540;49.448;8.612;2023-04-16T10:58:52;19.65;;;10.32;;
1106;SDS011;540;49.448;8.612;2023-04-16T11:01:31;19.05;;;10.00;;
1106;SDS011;540;49.448;8.612;2023-04-16T11:04:01;22.50;;;10.23;;
1106;SDS011;540;49.448;8.612;2023-04-16T11:07:05;20.52;;;10.65;;
1106;SDS011;540;49.448;8.612;2023-04-16T11:09:51;21.60;;;10.07;;
1106;SDS011;540;49.448;8.612;2023-04-16T11:12:21;20.60;;;10.48;;
1106;SDS011;540;49.448;8.612;2023-04-16T11:14:52;22.13;;;11.27;;
1106;SDS011;540;49.448;8.612;2023-04-16T11:17:26;20.40;;;10.60;;
1106;SDS011;540;49.448;8.612;2023-04-16T11:19:55;21.92;;;10.95;;
1106;SDS011;540;49.448;8.612;2023-04-16T11:22:23;31.90;;;15.52;;
1106;SDS011;540;49.448;8.612;2023-04-16T11:24:55;23.15;;;11.57;;
1106;SDS011;540;49.448;8.612;2023-04-16T11:27:25;23.40;;;12.77;;
1106;SDS011;540;49.448;8.612;2023-04-16T11:29:57;24.30;;;12.45;;
1106;SDS011;540;49.448;8.612;2023-04-16T11:32:26;22.70;;;12.13;;
1106;SDS011;540;49.448;8.612;2023-04-16T11:34:54;21.17;;;10.07;;
1106;SDS011;540;49.448;8.612;2023-04-16T11:37:30;27.85;;;12.05;;
1106;SDS011;540;49.448;8.612;2023-04-16T11:40:00;25.40;;;11.05;;
1106;SDS011;540;49.448;8.612;2023-04-16T11:42:30;24.23;;;11.15;;
1106;SDS011;540;49.448;8.612;2023-04-16T11:44:58;23.10;;;10.18;;
1106;SDS011;540;49.448;8.612;2023-04-16T11:47:27;26.50;;;11.77;;
1106;SDS011;540;49.448;8.612;2023-04-16T11:49:57;25.85;;;12.48;;
1106;SDS011;540;49.448;8.612;2023-04-16T11:52:46;20.70;;;10.88;;
1106;SDS011;540;49.448;8.612;2023-04-16T11:55:16;23.00;;;11.52;;
1106;SDS011;540;49.448;8.612;2023-04-16T11:57:45;21.17;;;10.85;;
1106;SDS011;540;49.448;8.612;2023-04-16T12:00:13;22.90;;;11.95;;
1106;SDS011;540;49.448;8.612;2023-04-16T12:02:42;22.13;;;11.65;;
1106;SDS011;540;49.448;8.612;2023-04-16T12:05:27;22.95;;;11.63;;
1106;SDS011;540;49.448;8.612;2023-04-16T12:07:57;21.00;;;11.87;;
1106;SDS011;540;49.448;8.612;2023-04-16T12:10:27;22.92;;;11.88;;
1106;SDS011;540;49.448;8.612;2023-04-16T12:13:09;20.90;;;11.95;;
1106;SDS011;540;49.448;8.612;2023-04-16T12:15:44;23.10;;;11.55;;
1106;SDS011;540;49.448;8.612;2023-04-16T12:18:13;22.95;;;11.43;;
1106;SDS011;540;49.448;8.612;2023-04-16T12:20:41;19.48;;;11.20;;
1106;SDS011;540;49.448;8.612;2023-04-16T12:23:20;26.65;;;12.18;;
1106;SDS011;540;49.448;8.612;2023-04-16T12:25:50;23.13;;;12.48;;
1106;SDS011;540;49.448;8.612;2023-04-16T12:28:28;28.08;;;12.68;;
1106;SDS011;540;49.448;8.612;2023-04-16T12:30:57;22.85;;;12.88;;
1106;SDS011;540;49.448;8.612;2023-04-16T12:33:25;26.13;;;13.02;;
1106;SDS011;540;49.448;8.612;2023-04-16T12:35:53;23.63;;;12.57;;
1106;SDS011;540;49.448;8.612;2023-04-16T12:38:21;24.25;;;12.73;;
1106;SDS011;540;49.448;8.612;2023-04-16T12:40:52;22.73;;;11.85;;
1106;SDS011;540;49.448;8.612;2023-04-16T12:43:21;23.98;;;11.73;;
1106;SDS011;540;49.448;8.612;2023-04-16T12:45:49;22.38;;;11.73;;
1106;SDS011;540;49.448;8.612;2023-04-16T12:48:17;26.48;;;11.95;;
1106;SDS011;540;49.448;8.612;2023-04-16T12:50:45;22.05;;;11.30;;
1106;SDS011;540;49.448;8.612;2023-04-16T12:53:13;23.35;;;12.38;;
1106;SDS011;540;49.448;8.612;2023-04-16T12:55:41;26.52;;;12.35;;
1106;SDS011;540;49.448;8.612;2023-04-16T12:58:11;21.73;;;12.55;;
1106;SDS011;540;49.448;8.612;2023-04-16T13:00:39;25.25;;;12.75;;
1106;SDS011;540;49.448;8.612;2023-04-16T13:03:07;22.70;;;12.75;;
1106;SDS011;540;49.448;8.612;2023-04-16T13:05:35;25.70;;;12.10;;
1106;SDS011;540;49.448;8.612;2023-04-16T13:08:03;24.38;;;13.60;;
1106;SDS011;540;49.448;8.612;2023-04-16T13:10:31;22.73;;;12.27;;
1106;SDS011;540;49.448;8.612;2023-04-16T13:12:59;23.58;;;12.23;;
1106;SDS011;540;49.448;8.612;2023-04-16T13:15:28;23.25;;;12.45;;
1106;SDS011;540;49.448;8.612;2023-04-16T13:17:56;21.00;;;11.55;;
1106;SDS011;540;49.448;8.612;2023-04-16T13:20:24;25.77;;;12.57;;
1106;SDS011;540;49.448;8.612;2023-04-16T13:22:51;22.73;;;12.43;;
1106;SDS011;540;49.448;8.612;2023-04-16T13:25:20;22.55;;;12.75;;
1106;SDS011;540;49.448;8.612;2023-04-16T13:27:47;23.25;;;12.48;;
1106;SDS011;540;49.448;8.612;2023-04-16T13:30:15;21.90;;;11.80;;
1106;SDS011;540;49.448;8.612;2023-04-16T13:32:44;21.10;;;11.95;;
1106;SDS011;540;49.448;8.612;2023-04-16T13:35:12;20.73;;;11.57;;
1106;SDS011;540;49.448;8.612;2023-04-16T13:37:40;23.73;;;12.77;;
1106;SDS011;540;49.448;8.612;2023-04-16T13:40:08;19.35;;;11.07;;
1106;SDS011;540;49.448;8.612;2023-04-16T13:42:36;23.38;;;12.35;;
1106;SDS011;540;49.448;8.612;2023-04-16T13:45:04;21.92;;;12.48;;
1106;SDS011;540;49.448;8.612;2023-04-16T13:47:34;23.42;;;13.00;;
1106;SDS011;540;49.448;8.612;2023-04-16T13:50:04;24.98;;;11.93;;
1106;SDS011;540;49.448;8.612;2023-04-16T13:52:32;23.90;;;12.02;;
1106;SDS011;540;49.448;8.612;2023-04-16T13:55:01;23.85;;;12.25;;
1106;SDS011;540;49.448;8.612;2023-04-16T13:57:29;26.20;;;12.25;;
1106;SDS011;540;49.448;8.612;2023-04-16T13:59:57;25.50;;;12.95;;
1106;SDS011;540;49.448;8.612;2023-04-16T14:02:25;24.67;;;13.10;;
1106;SDS011;540;49.448;8.612;2023-04-16T14:04:52;23.02;;;13.80;;
1106;SDS011;540;49.448;8.612;2023-04-16T14:07:22;26.70;;;14.23;;
1106;SDS011;540;49.448;8.612;2023-04-16T14:09:52;31.15;;;14.82;;
1106;SDS011;540;49.448;8.612;2023-04-16T14:12:20;27.80;;;14.48;;
1106;SDS011;540;49.448;8.612;2023-04-16T14:14:47;24.38;;;13.68;;
1106;SDS011;540;49.448;8.612;2023-04-16T14:17:15;30.42;;;16.23;;
1106;SDS011;540;49.448;8.612;2023-04-16T14:19:43;25.40;;;14.05;;
1106;SDS011;540;49.448;8.612;2023-04-16T14:22:11;24.23;;;13.38;;
1106;SDS011;540;49.448;8.612;2023-04-16T14:24:44;26.42;;;15.63;;
1106;SDS011;540;49.448;8.612;2023-04-16T14:27:11;25.35;;;14.75;;
1106;SDS011;540;49.448;8.612;2023-04-16T14:29:39;28.52;;;14.55;;
1106;SDS011;540;49.448;8.612;2023-04-16T14:32:07;26.77;;;13.60;;
1106;SDS011;540;49.448;8.612;2023-04-16T14:34:35;28.25;;;13.82;;
1106;SDS011;540;49.448;8.612;2023-04-16T14:37:03;28.45;;;15.23;;
1106;SDS011;540;49.448;8.612;2023-04-16T14:39:31;32.58;;;16.52;;
1106;SDS011;540;49.448;8.612;2023-04-16T14:42:00;30.02;;;16.40;;
1106;SDS011;540;49.448;8.612;2023-04-16T14:44:28;27.67;;;15.07;;
1106;SDS011;540;49.448;8.612;2023-04-16T14:46:56;27.60;;;14.25;;
1106;SDS011;540;49.448;8.612;2023-04-16T14:49:24;27.13;;;14.57;;
1106;SDS011;540;49.448;8.612;2023-04-16T14:51:52;29.63;;;15.00;;
1106;SDS011;540;49.448;8.612;2023-04-16T14:54:20;28.70;;;15.40;;
1106;SDS011;540;49.448;8.612;2023-04-16T14:56:48;29.65;;;14.82;;
1106;SDS011;540;49.448;8.612;2023-04-16T14:59:17;28.85;;;14.68;;
1106;SDS011;540;49.448;8.612;2023-04-16T15:01:45;26.98;;;15.02;;
1106;SDS011;540;49.448;8.612;2023-04-16T15:04:13;32.72;;;15.13;;
1106;SDS011;540;49.448;8.612;2023-04-16T15:06:41;27.67;;;15.27;;
1106;SDS011;540;49.448;8.612;2023-04-16T15:09:09;27.80;;;14.70;;
1106;SDS011;540;49.448;8.612;2023-04-16T15:11:37;28.42;;;15.32;;
1106;SDS011;540;49.448;8.612;2023-04-16T15:14:05;28.63;;;16.15;;
1106;SDS011;540;49.448;8.612;2023-04-16T15:16:34;29.58;;;15.25;;
1106;SDS011;540;49.448;8.612;2023-04-16T15:19:02;27.17;;;14.25;;
1106;SDS011;540;49.448;8.612;2023-04-16T15:21:30;25.73;;;16.02;;